sensor_id;sensor_type;location;lat;lon;timestamp;temperature;humidity
33139;DHT22;19501;50.948;5.316;2024-02-26T00:01:42;8.10;99.90
33139;DHT22;19501;50.948;5.316;2024-02-26T00:04:13;8.00;99.90
33139;DHT22;19501;50.948;5.316;2024-02-26T00:06:39;7.90;99.90
33139;DHT22;19501;50.948;5.316;2024-02-26T00:09:08;8.00;99.90
33139;DHT22;19501;50.948;5.316;2024-02-26T00:11:35;8.00;99.90
33139;DHT22;19501;50.948;5.316;2024-02-26T00:14:01;8.00;99.90
33139;DHT22;19501;50.948;5.316;2024-02-26T00:16:27;7.90;99.90
33139;DHT22;19501;50.948;5.316;2024-02-26T00:18:52;7.80;99.90
33139;DHT22;19501;50.948;5.316;2024-02-26T00:21:18;7.90;99.90
33139;DHT22;19501;50.948;5.316;2024-02-26T00:23:44;7.90;99.90
33139;DHT22;19501;50.948;5.316;2024-02-26T00:26:09;8.00;99.90
33139;DHT22;19501;50.948;5.316;2024-02-26T00:28:38;8.00;99.90
33139;DHT22;19501;50.948;5.316;2024-02-26T00:31:04;7.90;99.90
33139;DHT22;19501;50.948;5.316;2024-02-26T00:33:30;7.70;99.90
33139;DHT22;19501;50.948;5.316;2024-02-26T00:35:56;7.70;99.90
33139;DHT22;19501;50.948;5.316;2024-02-26T00:38:21;7.70;99.90
33139;DHT22;19501;50.948;5.316;2024-02-26T00:40:47;7.70;99.90
33139;DHT22;19501;50.948;5.316;2024-02-26T00:43:12;7.70;99.90
33139;DHT22;19501;50.948;5.316;2024-02-26T00:45:38;7.70;99.90
33139;DHT22;19501;50.948;5.316;2024-02-26T00:48:04;7.70;99.90
33139;DHT22;19501;50.948;5.316;2024-02-26T00:50:36;7.60;99.90
33139;DHT22;19501;50.948;5.316;2024-02-26T00:53:02;7.50;99.90
33139;DHT22;19501;50.948;5.316;2024-02-26T00:55:28;7.40;99.90
33139;DHT22;19501;50.948;5.316;2024-02-26T00:57:54;7.40;99.90
33139;DHT22;19501;50.948;5.316;2024-02-26T01:00:19;7.30;99.90
33139;DHT22;19501;50.948;5.316;2024-02-26T01:02:48;7.40;99.90
33139;DHT22;19501;50.948;5.316;2024-02-26T01:05:14;7.30;99.90
33139;DHT22;19501;50.948;5.316;2024-02-26T01:07:40;7.30;99.90
33139;DHT22;19501;50.948;5.316;2024-02-26T01:10:06;7.30;99.90
33139;DHT22;19501;50.948;5.316;2024-02-26T01:12:33;7.20;99.90
33139;DHT22;19501;50.948;5.316;2024-02-26T01:14:59;7.10;99.90
33139;DHT22;19501;50.948;5.316;2024-02-26T01:17:25;7.20;99.90
33139;DHT22;19501;50.948;5.316;2024-02-26T01:19:50;7.20;99.90
33139;DHT22;19501;50.948;5.316;2024-02-26T01:22:16;7.10;99.90
33139;DHT22;19501;50.948;5.316;2024-02-26T01:24:42;7.00;99.90
33139;DHT22;19501;50.948;5.316;2024-02-26T01:27:07;7.00;99.90
33139;DHT22;19501;50.948;5.316;2024-02-26T01:29:34;7.00;99.90
33139;DHT22;19501;50.948;5.316;2024-02-26T01:32:00;6.90;99.90
33139;DHT22;19501;50.948;5.316;2024-02-26T01:34:25;6.90;99.90
33139;DHT22;19501;50.948;5.316;2024-02-26T01:36:51;6.90;99.90
33139;DHT22;19501;50.948;5.316;2024-02-26T01:39:16;7.00;99.90
33139;DHT22;19501;50.948;5.316;2024-02-26T01:41:42;7.00;99.90
33139;DHT22;19501;50.948;5.316;2024-02-26T01:44:08;7.10;99.90
33139;DHT22;19501;50.948;5.316;2024-02-26T01:46:34;7.00;99.90
33139;DHT22;19501;50.948;5.316;2024-02-26T01:49:02;7.00;99.90
33139;DHT22;19501;50.948;5.316;2024-02-26T01:51:29;6.90;99.90
33139;DHT22;19501;50.948;5.316;2024-02-26T01:53:59;7.10;99.90
33139;DHT22;19501;50.948;5.316;2024-02-26T01:56:25;7.10;99.90
33139;DHT22;19501;50.948;5.316;2024-02-26T01:58:55;7.10;99.90
33139;DHT22;19501;50.948;5.316;2024-02-26T02:01:23;7.00;99.90
33139;DHT22;19501;50.948;5.316;2024-02-26T02:03:50;7.00;99.90
33139;DHT22;19501;50.948;5.316;2024-02-26T02:06:16;7.00;99.90
33139;DHT22;19501;50.948;5.316;2024-02-26T02:08:42;6.90;99.90
33139;DHT22;19501;50.948;5.316;2024-02-26T02:11:09;6.90;99.90
33139;DHT22;19501;50.948;5.316;2024-02-26T02:13:37;6.90;99.90
33139;DHT22;19501;50.948;5.316;2024-02-26T02:16:03;6.90;99.90
33139;DHT22;19501;50.948;5.316;2024-02-26T02:18:29;6.80;99.90
33139;DHT22;19501;50.948;5.316;2024-02-26T02:20:55;6.90;99.90
33139;DHT22;19501;50.948;5.316;2024-02-26T02:23:22;6.80;99.90
33139;DHT22;19501;50.948;5.316;2024-02-26T02:25:47;6.90;99.90
33139;DHT22;19501;50.948;5.316;2024-02-26T02:28:16;6.80;99.90
33139;DHT22;19501;50.948;5.316;2024-02-26T02:30:41;6.80;99.90
33139;DHT22;19501;50.948;5.316;2024-02-26T02:33:07;6.80;99.90
33139;DHT22;19501;50.948;5.316;2024-02-26T02:35:33;6.80;99.90
33139;DHT22;19501;50.948;5.316;2024-02-26T02:37:58;6.80;99.90
33139;DHT22;19501;50.948;5.316;2024-02-26T02:40:24;6.80;99.90
33139;DHT22;19501;50.948;5.316;2024-02-26T02:42:49;6.80;99.90
33139;DHT22;19501;50.948;5.316;2024-02-26T02:45:15;6.80;99.90
33139;DHT22;19501;50.948;5.316;2024-02-26T02:47:41;6.70;99.90
33139;DHT22;19501;50.948;5.316;2024-02-26T02:50:07;6.80;99.90
33139;DHT22;19501;50.948;5.316;2024-02-26T02:52:32;6.80;99.90
33139;DHT22;19501;50.948;5.316;2024-02-26T02:54:58;6.70;99.90
33139;DHT22;19501;50.948;5.316;2024-02-26T02:57:24;6.70;99.90
33139;DHT22;19501;50.948;5.316;2024-02-26T02:59:49;6.60;99.90
33139;DHT22;19501;50.948;5.316;2024-02-26T03:02:15;6.70;99.90
33139;DHT22;19501;50.948;5.316;2024-02-26T03:04:41;6.80;99.90
33139;DHT22;19501;50.948;5.316;2024-02-26T03:07:06;6.70;99.90
33139;DHT22;19501;50.948;5.316;2024-02-26T03:09:32;6.80;99.90
33139;DHT22;19501;50.948;5.316;2024-02-26T03:11:58;6.70;99.90
33139;DHT22;19501;50.948;5.316;2024-02-26T03:14:23;6.80;99.90
33139;DHT22;19501;50.948;5.316;2024-02-26T03:16:54;6.80;99.90
33139;DHT22;19501;50.948;5.316;2024-02-26T03:19:20;6.80;99.90
33139;DHT22;19501;50.948;5.316;2024-02-26T03:21:46;6.70;99.90
33139;DHT22;19501;50.948;5.316;2024-02-26T03:24:12;6.60;99.90
33139;DHT22;19501;50.948;5.316;2024-02-26T03:26:38;6.60;99.90
33139;DHT22;19501;50.948;5.316;2024-02-26T03:29:06;6.60;99.90
33139;DHT22;19501;50.948;5.316;2024-02-26T03:31:31;6.50;99.90
33139;DHT22;19501;50.948;5.316;2024-02-26T03:33:57;6.60;99.90
33139;DHT22;19501;50.948;5.316;2024-02-26T03:36:23;6.60;99.90
33139;DHT22;19501;50.948;5.316;2024-02-26T03:38:48;6.60;99.90
33139;DHT22;19501;50.948;5.316;2024-02-26T03:41:14;6.60;99.90
33139;DHT22;19501;50.948;5.316;2024-02-26T03:43:40;6.60;99.90
33139;DHT22;19501;50.948;5.316;2024-02-26T03:46:09;6.60;99.90
33139;DHT22;19501;50.948;5.316;2024-02-26T03:48:36;6.60;99.90
33139;DHT22;19501;50.948;5.316;2024-02-26T03:51:03;6.60;99.90
33139;DHT22;19501;50.948;5.316;2024-02-26T03:53:28;6.50;99.90
33139;DHT22;19501;50.948;5.316;2024-02-26T03:55:54;6.50;99.90
33139;DHT22;19501;50.948;5.316;2024-02-26T03:58:21;6.50;99.90
33139;DHT22;19501;50.948;5.316;2024-02-26T04:00:46;6.50;99.90
33139;DHT22;19501;50.948;5.316;2024-02-26T04:03:15;6.50;99.90
33139;DHT22;19501;50.948;5.316;2024-02-26T04:05:41;6.60;99.90
33139;DHT22;19501;50.948;5.316;2024-02-26T04:08:07;6.60;99.90
33139;DHT22;19501;50.948;5.316;2024-02-26T04:10:34;6.60;99.90
33139;DHT22;19501;50.948;5.316;2024-02-26T04:13:01;6.60;99.90
33139;DHT22;19501;50.948;5.316;2024-02-26T04:15:26;6.60;99.90
33139;DHT22;19501;50.948;5.316;2024-02-26T04:17:52;6.60;99.90
33139;DHT22;19501;50.948;5.316;2024-02-26T04:20:18;6.60;99.90
33139;DHT22;19501;50.948;5.316;2024-02-26T04:22:44;6.60;99.90
33139;DHT22;19501;50.948;5.316;2024-02-26T04:25:09;6.50;99.90
33139;DHT22;19501;50.948;5.316;2024-02-26T04:27:35;6.50;99.90
33139;DHT22;19501;50.948;5.316;2024-02-26T04:30:01;6.50;99.90
33139;DHT22;19501;50.948;5.316;2024-02-26T04:32:26;6.50;99.90
33139;DHT22;19501;50.948;5.316;2024-02-26T04:34:54;6.50;99.90
33139;DHT22;19501;50.948;5.316;2024-02-26T04:37:19;6.40;99.90
33139;DHT22;19501;50.948;5.316;2024-02-26T04:39:45;6.40;99.90
33139;DHT22;19501;50.948;5.316;2024-02-26T04:42:11;6.40;99.90
33139;DHT22;19501;50.948;5.316;2024-02-26T04:44:36;6.50;99.90
33139;DHT22;19501;50.948;5.316;2024-02-26T04:47:02;6.40;99.90
33139;DHT22;19501;50.948;5.316;2024-02-26T04:49:28;6.50;99.90
33139;DHT22;19501;50.948;5.316;2024-02-26T04:51:56;6.50;99.90
33139;DHT22;19501;50.948;5.316;2024-02-26T04:54:22;6.50;99.90
33139;DHT22;19501;50.948;5.316;2024-02-26T04:56:48;6.50;99.90
33139;DHT22;19501;50.948;5.316;2024-02-26T04:59:13;6.50;99.90
33139;DHT22;19501;50.948;5.316;2024-02-26T05:01:39;6.50;99.90
33139;DHT22;19501;50.948;5.316;2024-02-26T05:04:05;6.50;99.90
33139;DHT22;19501;50.948;5.316;2024-02-26T05:06:31;6.50;99.90
33139;DHT22;19501;50.948;5.316;2024-02-26T05:08:56;6.40;99.90
33139;DHT22;19501;50.948;5.316;2024-02-26T05:11:22;6.50;99.90
33139;DHT22;19501;50.948;5.316;2024-02-26T05:13:48;6.50;99.90
33139;DHT22;19501;50.948;5.316;2024-02-26T05:16:16;6.50;99.90
33139;DHT22;19501;50.948;5.316;2024-02-26T05:18:41;6.50;99.90
33139;DHT22;19501;50.948;5.316;2024-02-26T05:21:09;6.50;99.90
33139;DHT22;19501;50.948;5.316;2024-02-26T05:23:35;6.50;99.90
33139;DHT22;19501;50.948;5.316;2024-02-26T05:26:00;6.50;99.90
33139;DHT22;19501;50.948;5.316;2024-02-26T05:28:26;6.50;99.90
33139;DHT22;19501;50.948;5.316;2024-02-26T05:30:52;6.60;99.90
33139;DHT22;19501;50.948;5.316;2024-02-26T05:33:17;6.50;99.90
33139;DHT22;19501;50.948;5.316;2024-02-26T05:35:43;6.50;99.90
33139;DHT22;19501;50.948;5.316;2024-02-26T05:38:08;6.50;99.90
33139;DHT22;19501;50.948;5.316;2024-02-26T05:40:34;6.50;99.90
33139;DHT22;19501;50.948;5.316;2024-02-26T05:43:00;6.50;99.90
33139;DHT22;19501;50.948;5.316;2024-02-26T05:45:26;6.50;99.90
33139;DHT22;19501;50.948;5.316;2024-02-26T05:47:51;6.40;99.90
33139;DHT22;19501;50.948;5.316;2024-02-26T05:50:17;6.50;99.90
33139;DHT22;19501;50.948;5.316;2024-02-26T05:52:43;6.50;99.90
33139;DHT22;19501;50.948;5.316;2024-02-26T05:55:09;6.40;99.90
33139;DHT22;19501;50.948;5.316;2024-02-26T05:57:35;6.40;99.90
33139;DHT22;19501;50.948;5.316;2024-02-26T06:00:01;6.40;99.90
33139;DHT22;19501;50.948;5.316;2024-02-26T06:02:32;6.40;99.90
33139;DHT22;19501;50.948;5.316;2024-02-26T06:04:58;6.40;99.90
33139;DHT22;19501;50.948;5.316;2024-02-26T06:07:24;6.30;99.90
33139;DHT22;19501;50.948;5.316;2024-02-26T06:09:50;6.30;99.90
33139;DHT22;19501;50.948;5.316;2024-02-26T06:12:16;6.40;99.90
33139;DHT22;19501;50.948;5.316;2024-02-26T06:14:44;6.40;99.90
33139;DHT22;19501;50.948;5.316;2024-02-26T06:17:10;6.30;99.90
33139;DHT22;19501;50.948;5.316;2024-02-26T06:19:38;6.30;99.90
33139;DHT22;19501;50.948;5.316;2024-02-26T06:22:03;6.30;99.90
33139;DHT22;19501;50.948;5.316;2024-02-26T06:24:29;6.30;99.90
33139;DHT22;19501;50.948;5.316;2024-02-26T06:26:55;6.30;99.90
33139;DHT22;19501;50.948;5.316;2024-02-26T06:29:21;6.20;99.90
33139;DHT22;19501;50.948;5.316;2024-02-26T06:31:47;6.30;99.90
33139;DHT22;19501;50.948;5.316;2024-02-26T06:34:13;6.30;99.90
33139;DHT22;19501;50.948;5.316;2024-02-26T06:36:39;6.30;99.90
33139;DHT22;19501;50.948;5.316;2024-02-26T06:39:05;6.20;99.90
33139;DHT22;19501;50.948;5.316;2024-02-26T06:41:31;6.30;99.90
33139;DHT22;19501;50.948;5.316;2024-02-26T06:43:56;6.30;99.90
33139;DHT22;19501;50.948;5.316;2024-02-26T06:46:22;6.30;99.90
33139;DHT22;19501;50.948;5.316;2024-02-26T06:48:49;6.30;99.90
33139;DHT22;19501;50.948;5.316;2024-02-26T06:51:15;6.30;99.90
33139;DHT22;19501;50.948;5.316;2024-02-26T06:53:40;6.20;99.90
33139;DHT22;19501;50.948;5.316;2024-02-26T06:56:06;6.30;99.90
33139;DHT22;19501;50.948;5.316;2024-02-26T06:58:32;6.30;99.90
33139;DHT22;19501;50.948;5.316;2024-02-26T07:00:58;6.30;99.90
33139;DHT22;19501;50.948;5.316;2024-02-26T07:03:23;6.40;99.90
33139;DHT22;19501;50.948;5.316;2024-02-26T07:05:51;6.30;99.90
33139;DHT22;19501;50.948;5.316;2024-02-26T07:08:17;6.30;99.90
33139;DHT22;19501;50.948;5.316;2024-02-26T07:10:43;6.30;99.90
33139;DHT22;19501;50.948;5.316;2024-02-26T07:13:08;6.30;99.90
33139;DHT22;19501;50.948;5.316;2024-02-26T07:15:34;6.20;99.90
33139;DHT22;19501;50.948;5.316;2024-02-26T07:18:00;6.20;99.90
33139;DHT22;19501;50.948;5.316;2024-02-26T07:20:29;6.20;99.90
33139;DHT22;19501;50.948;5.316;2024-02-26T07:22:55;6.20;99.90
33139;DHT22;19501;50.948;5.316;2024-02-26T07:25:21;6.30;99.90
33139;DHT22;19501;50.948;5.316;2024-02-26T07:27:47;6.30;99.90
33139;DHT22;19501;50.948;5.316;2024-02-26T07:30:13;6.30;99.90
33139;DHT22;19501;50.948;5.316;2024-02-26T07:32:39;6.20;99.90
33139;DHT22;19501;50.948;5.316;2024-02-26T07:35:04;6.30;99.90
33139;DHT22;19501;50.948;5.316;2024-02-26T07:37:30;6.40;99.90
33139;DHT22;19501;50.948;5.316;2024-02-26T07:39:56;6.40;99.90
33139;DHT22;19501;50.948;5.316;2024-02-26T07:42:22;6.30;99.90
33139;DHT22;19501;50.948;5.316;2024-02-26T07:44:47;6.30;99.90
33139;DHT22;19501;50.948;5.316;2024-02-26T07:47:13;6.30;99.90
33139;DHT22;19501;50.948;5.316;2024-02-26T07:49:39;6.30;99.90
33139;DHT22;19501;50.948;5.316;2024-02-26T07:52:05;6.30;99.90
33139;DHT22;19501;50.948;5.316;2024-02-26T07:54:31;6.30;99.90
33139;DHT22;19501;50.948;5.316;2024-02-26T07:56:56;6.30;99.90
33139;DHT22;19501;50.948;5.316;2024-02-26T07:59:22;6.20;99.90
33139;DHT22;19501;50.948;5.316;2024-02-26T08:01:51;6.30;99.90
33139;DHT22;19501;50.948;5.316;2024-02-26T08:04:17;6.30;99.90
33139;DHT22;19501;50.948;5.316;2024-02-26T08:06:42;6.30;99.90
33139;DHT22;19501;50.948;5.316;2024-02-26T08:09:08;6.30;99.90
33139;DHT22;19501;50.948;5.316;2024-02-26T08:11:34;6.30;99.90
33139;DHT22;19501;50.948;5.316;2024-02-26T08:14:00;6.40;99.90
33139;DHT22;19501;50.948;5.316;2024-02-26T08:16:26;6.40;99.90
33139;DHT22;19501;50.948;5.316;2024-02-26T08:18:52;6.40;99.90
33139;DHT22;19501;50.948;5.316;2024-02-26T08:21:18;6.40;99.90
33139;DHT22;19501;50.948;5.316;2024-02-26T08:23:44;6.50;99.90
33139;DHT22;19501;50.948;5.316;2024-02-26T08:26:12;6.30;99.90
33139;DHT22;19501;50.948;5.316;2024-02-26T08:28:38;6.20;99.90
33139;DHT22;19501;50.948;5.316;2024-02-26T08:31:03;6.30;99.90
33139;DHT22;19501;50.948;5.316;2024-02-26T08:33:30;6.30;99.90
33139;DHT22;19501;50.948;5.316;2024-02-26T08:35:56;6.30;99.90
33139;DHT22;19501;50.948;5.316;2024-02-26T08:38:22;6.30;99.90
33139;DHT22;19501;50.948;5.316;2024-02-26T08:40:48;6.30;99.90
33139;DHT22;19501;50.948;5.316;2024-02-26T08:43:14;6.30;99.90
33139;DHT22;19501;50.948;5.316;2024-02-26T08:45:40;6.30;99.90
33139;DHT22;19501;50.948;5.316;2024-02-26T08:48:06;6.30;99.90
33139;DHT22;19501;50.948;5.316;2024-02-26T08:50:31;6.30;99.90
33139;DHT22;19501;50.948;5.316;2024-02-26T08:52:57;6.40;99.90
33139;DHT22;19501;50.948;5.316;2024-02-26T08:55:23;6.30;99.90
33139;DHT22;19501;50.948;5.316;2024-02-26T08:57:48;6.40;99.90
33139;DHT22;19501;50.948;5.316;2024-02-26T09:00:15;6.40;99.90
33139;DHT22;19501;50.948;5.316;2024-02-26T09:02:47;6.40;99.90
33139;DHT22;19501;50.948;5.316;2024-02-26T09:05:16;6.50;99.90
33139;DHT22;19501;50.948;5.316;2024-02-26T09:07:42;6.50;99.90
33139;DHT22;19501;50.948;5.316;2024-02-26T09:10:08;6.40;99.90
33139;DHT22;19501;50.948;5.316;2024-02-26T09:12:39;6.40;99.90
33139;DHT22;19501;50.948;5.316;2024-02-26T09:15:06;6.40;99.90
33139;DHT22;19501;50.948;5.316;2024-02-26T09:17:33;6.40;99.90
33139;DHT22;19501;50.948;5.316;2024-02-26T09:19:58;6.40;99.90
33139;DHT22;19501;50.948;5.316;2024-02-26T09:22:24;6.40;99.90
33139;DHT22;19501;50.948;5.316;2024-02-26T09:24:50;6.40;99.90
33139;DHT22;19501;50.948;5.316;2024-02-26T09:27:16;6.30;99.90
33139;DHT22;19501;50.948;5.316;2024-02-26T09:29:42;6.40;99.90
33139;DHT22;19501;50.948;5.316;2024-02-26T09:32:08;6.40;99.90
33139;DHT22;19501;50.948;5.316;2024-02-26T09:34:33;6.60;99.90
33139;DHT22;19501;50.948;5.316;2024-02-26T09:36:59;6.50;99.90
33139;DHT22;19501;50.948;5.316;2024-02-26T09:39:26;6.60;99.90
33139;DHT22;19501;50.948;5.316;2024-02-26T09:41:53;6.50;99.90
33139;DHT22;19501;50.948;5.316;2024-02-26T09:44:21;6.50;99.90
33139;DHT22;19501;50.948;5.316;2024-02-26T09:46:49;6.50;99.90
33139;DHT22;19501;50.948;5.316;2024-02-26T09:49:18;6.50;99.90
33139;DHT22;19501;50.948;5.316;2024-02-26T09:51:45;6.50;99.90
33139;DHT22;19501;50.948;5.316;2024-02-26T09:54:13;6.50;99.90
33139;DHT22;19501;50.948;5.316;2024-02-26T09:56:42;6.50;99.90
33139;DHT22;19501;50.948;5.316;2024-02-26T09:59:15;6.50;99.90
33139;DHT22;19501;50.948;5.316;2024-02-26T10:01:42;6.60;99.90
33139;DHT22;19501;50.948;5.316;2024-02-26T10:04:10;6.50;99.90
33139;DHT22;19501;50.948;5.316;2024-02-26T10:06:37;6.60;99.90
33139;DHT22;19501;50.948;5.316;2024-02-26T10:09:03;6.60;99.90
33139;DHT22;19501;50.948;5.316;2024-02-26T10:11:32;6.70;99.90
33139;DHT22;19501;50.948;5.316;2024-02-26T10:14:00;6.80;99.90
33139;DHT22;19501;50.948;5.316;2024-02-26T10:16:26;6.80;99.90
33139;DHT22;19501;50.948;5.316;2024-02-26T10:18:53;6.80;99.90
33139;DHT22;19501;50.948;5.316;2024-02-26T10:21:22;6.70;99.90
33139;DHT22;19501;50.948;5.316;2024-02-26T10:23:49;6.80;99.90
33139;DHT22;19501;50.948;5.316;2024-02-26T10:26:16;6.80;99.90
33139;DHT22;19501;50.948;5.316;2024-02-26T10:28:43;6.80;99.90
33139;DHT22;19501;50.948;5.316;2024-02-26T10:31:09;6.80;99.90
33139;DHT22;19501;50.948;5.316;2024-02-26T10:33:36;6.90;99.90
33139;DHT22;19501;50.948;5.316;2024-02-26T10:36:09;6.90;99.90
33139;DHT22;19501;50.948;5.316;2024-02-26T10:38:37;6.80;99.90
33139;DHT22;19501;50.948;5.316;2024-02-26T10:41:06;6.90;99.90
33139;DHT22;19501;50.948;5.316;2024-02-26T10:43:33;6.80;99.90
33139;DHT22;19501;50.948;5.316;2024-02-26T10:45:59;6.90;99.90
33139;DHT22;19501;50.948;5.316;2024-02-26T10:48:25;6.90;99.90
33139;DHT22;19501;50.948;5.316;2024-02-26T10:50:51;6.90;99.90
33139;DHT22;19501;50.948;5.316;2024-02-26T10:53:20;6.80;99.90
33139;DHT22;19501;50.948;5.316;2024-02-26T10:55:54;6.70;99.90
33139;DHT22;19501;50.948;5.316;2024-02-26T10:58:21;6.70;99.90
33139;DHT22;19501;50.948;5.316;2024-02-26T11:00:48;6.70;99.90
33139;DHT22;19501;50.948;5.316;2024-02-26T11:03:15;6.70;99.90
33139;DHT22;19501;50.948;5.316;2024-02-26T11:05:48;6.60;99.90
33139;DHT22;19501;50.948;5.316;2024-02-26T11:08:14;6.60;99.90
33139;DHT22;19501;50.948;5.316;2024-02-26T11:10:41;6.60;99.90
33139;DHT22;19501;50.948;5.316;2024-02-26T11:13:11;6.60;99.90
33139;DHT22;19501;50.948;5.316;2024-02-26T11:15:39;6.60;99.90
33139;DHT22;19501;50.948;5.316;2024-02-26T11:18:08;6.60;99.90
33139;DHT22;19501;50.948;5.316;2024-02-26T11:20:34;6.60;99.90
33139;DHT22;19501;50.948;5.316;2024-02-26T11:23:04;6.60;99.90
33139;DHT22;19501;50.948;5.316;2024-02-26T11:25:30;6.60;99.90
33139;DHT22;19501;50.948;5.316;2024-02-26T11:28:01;6.50;99.90
33139;DHT22;19501;50.948;5.316;2024-02-26T11:30:31;6.50;99.90
33139;DHT22;19501;50.948;5.316;2024-02-26T11:32:58;6.50;99.90
33139;DHT22;19501;50.948;5.316;2024-02-26T11:35:26;6.50;99.90
33139;DHT22;19501;50.948;5.316;2024-02-26T11:38:00;6.40;99.90
33139;DHT22;19501;50.948;5.316;2024-02-26T11:40:26;6.60;99.90
33139;DHT22;19501;50.948;5.316;2024-02-26T11:42:53;6.60;99.90
33139;DHT22;19501;50.948;5.316;2024-02-26T11:48:21;6.50;99.90
33139;DHT22;19501;50.948;5.316;2024-02-26T11:53:27;6.50;99.90
33139;DHT22;19501;50.948;5.316;2024-02-26T12:01:50;6.50;99.90
33139;DHT22;19501;50.948;5.316;2024-02-26T12:04:21;6.60;99.90
33139;DHT22;19501;50.948;5.316;2024-02-26T12:06:55;6.60;99.90
33139;DHT22;19501;50.948;5.316;2024-02-26T12:09:40;6.70;99.90
33139;DHT22;19501;50.948;5.316;2024-02-26T12:12:08;6.70;99.90
33139;DHT22;19501;50.948;5.316;2024-02-26T12:14:55;6.80;99.90
33139;DHT22;19501;50.948;5.316;2024-02-26T12:17:25;6.90;99.90
33139;DHT22;19501;50.948;5.316;2024-02-26T12:19:51;6.80;99.90
33139;DHT22;19501;50.948;5.316;2024-02-26T12:22:19;6.80;99.90
33139;DHT22;19501;50.948;5.316;2024-02-26T12:24:45;6.90;99.90
33139;DHT22;19501;50.948;5.316;2024-02-26T12:27:11;6.80;99.90
33139;DHT22;19501;50.948;5.316;2024-02-26T12:29:37;6.80;99.90
33139;DHT22;19501;50.948;5.316;2024-02-26T12:32:06;6.80;99.90
33139;DHT22;19501;50.948;5.316;2024-02-26T12:34:32;6.90;99.90
33139;DHT22;19501;50.948;5.316;2024-02-26T12:37:03;6.90;99.90
33139;DHT22;19501;50.948;5.316;2024-02-26T12:39:29;6.90;99.90
33139;DHT22;19501;50.948;5.316;2024-02-26T12:41:58;6.90;99.90
33139;DHT22;19501;50.948;5.316;2024-02-26T12:44:25;6.80;99.90
33139;DHT22;19501;50.948;5.316;2024-02-26T12:47:02;6.90;99.90
33139;DHT22;19501;50.948;5.316;2024-02-26T12:49:28;7.00;99.90
33139;DHT22;19501;50.948;5.316;2024-02-26T12:51:54;7.00;99.90
33139;DHT22;19501;50.948;5.316;2024-02-26T12:54:32;7.10;99.90
33139;DHT22;19501;50.948;5.316;2024-02-26T12:57:00;7.20;99.90
33139;DHT22;19501;50.948;5.316;2024-02-26T12:59:26;7.20;99.90
33139;DHT22;19501;50.948;5.316;2024-02-26T13:01:52;7.30;99.90
33139;DHT22;19501;50.948;5.316;2024-02-26T13:04:18;7.30;99.90
33139;DHT22;19501;50.948;5.316;2024-02-26T13:06:44;7.40;99.90
33139;DHT22;19501;50.948;5.316;2024-02-26T13:09:13;7.40;99.90
33139;DHT22;19501;50.948;5.316;2024-02-26T13:11:45;7.30;99.90
33139;DHT22;19501;50.948;5.316;2024-02-26T13:14:22;7.30;99.90
33139;DHT22;19501;50.948;5.316;2024-02-26T13:16:55;7.20;99.90
33139;DHT22;19501;50.948;5.316;2024-02-26T13:19:22;7.20;99.90
33139;DHT22;19501;50.948;5.316;2024-02-26T13:21:47;7.10;99.90
33139;DHT22;19501;50.948;5.316;2024-02-26T13:24:14;7.10;99.90
33139;DHT22;19501;50.948;5.316;2024-02-26T13:26:39;7.20;99.90
33139;DHT22;19501;50.948;5.316;2024-02-26T13:29:05;7.20;99.90
33139;DHT22;19501;50.948;5.316;2024-02-26T13:31:31;7.20;99.90
33139;DHT22;19501;50.948;5.316;2024-02-26T13:34:03;7.20;99.90
33139;DHT22;19501;50.948;5.316;2024-02-26T13:36:29;7.10;99.90
33139;DHT22;19501;50.948;5.316;2024-02-26T13:38:55;7.10;99.90
33139;DHT22;19501;50.948;5.316;2024-02-26T13:41:24;7.20;99.90
33139;DHT22;19501;50.948;5.316;2024-02-26T13:43:50;7.20;99.90
33139;DHT22;19501;50.948;5.316;2024-02-26T13:46:16;7.10;99.90
33139;DHT22;19501;50.948;5.316;2024-02-26T13:48:42;7.10;99.90
33139;DHT22;19501;50.948;5.316;2024-02-26T13:51:08;7.00;99.90
33139;DHT22;19501;50.948;5.316;2024-02-26T13:53:33;7.10;99.90
33139;DHT22;19501;50.948;5.316;2024-02-26T13:55:59;7.10;99.90
33139;DHT22;19501;50.948;5.316;2024-02-26T13:58:27;7.20;99.90
33139;DHT22;19501;50.948;5.316;2024-02-26T14:00:53;7.30;99.90
33139;DHT22;19501;50.948;5.316;2024-02-26T14:03:20;7.30;99.90
33139;DHT22;19501;50.948;5.316;2024-02-26T14:05:46;7.40;99.90
33139;DHT22;19501;50.948;5.316;2024-02-26T14:08:12;7.50;99.90
33139;DHT22;19501;50.948;5.316;2024-02-26T14:10:38;7.50;99.90
33139;DHT22;19501;50.948;5.316;2024-02-26T14:13:04;7.40;99.90
33139;DHT22;19501;50.948;5.316;2024-02-26T14:15:30;7.40;99.90
33139;DHT22;19501;50.948;5.316;2024-02-26T14:17:56;7.30;99.90
33139;DHT22;19501;50.948;5.316;2024-02-26T14:20:22;7.30;99.90
33139;DHT22;19501;50.948;5.316;2024-02-26T14:22:50;7.40;99.90
33139;DHT22;19501;50.948;5.316;2024-02-26T14:25:17;7.30;99.90
33139;DHT22;19501;50.948;5.316;2024-02-26T14:27:43;7.30;99.90
33139;DHT22;19501;50.948;5.316;2024-02-26T14:30:13;7.40;99.90
33139;DHT22;19501;50.948;5.316;2024-02-26T14:32:38;7.30;99.90
33139;DHT22;19501;50.948;5.316;2024-02-26T14:35:09;7.30;99.90
33139;DHT22;19501;50.948;5.316;2024-02-26T14:37:35;7.20;99.90
33139;DHT22;19501;50.948;5.316;2024-02-26T14:40:02;7.20;99.90
33139;DHT22;19501;50.948;5.316;2024-02-26T14:42:31;7.10;99.90
33139;DHT22;19501;50.948;5.316;2024-02-26T14:44:56;7.20;99.90
33139;DHT22;19501;50.948;5.316;2024-02-26T14:47:22;7.30;99.90
33139;DHT22;19501;50.948;5.316;2024-02-26T14:49:47;7.40;99.90
33139;DHT22;19501;50.948;5.316;2024-02-26T14:52:14;7.40;99.90
33139;DHT22;19501;50.948;5.316;2024-02-26T14:54:40;7.40;99.90
33139;DHT22;19501;50.948;5.316;2024-02-26T14:57:06;7.50;99.90
33139;DHT22;19501;50.948;5.316;2024-02-26T14:59:32;7.60;99.90
33139;DHT22;19501;50.948;5.316;2024-02-26T15:01:58;7.50;99.90
33139;DHT22;19501;50.948;5.316;2024-02-26T15:04:26;7.40;99.90
33139;DHT22;19501;50.948;5.316;2024-02-26T15:06:52;7.40;99.90
33139;DHT22;19501;50.948;5.316;2024-02-26T15:09:18;7.40;99.90
33139;DHT22;19501;50.948;5.316;2024-02-26T15:11:44;7.40;99.90
33139;DHT22;19501;50.948;5.316;2024-02-26T15:14:10;7.40;99.90
33139;DHT22;19501;50.948;5.316;2024-02-26T15:16:40;7.40;99.90
33139;DHT22;19501;50.948;5.316;2024-02-26T15:19:06;7.50;99.90
33139;DHT22;19501;50.948;5.316;2024-02-26T15:21:32;7.30;99.90
33139;DHT22;19501;50.948;5.316;2024-02-26T15:23:58;7.30;99.90
33139;DHT22;19501;50.948;5.316;2024-02-26T15:26:24;7.40;99.90
33139;DHT22;19501;50.948;5.316;2024-02-26T15:28:51;7.40;99.90
33139;DHT22;19501;50.948;5.316;2024-02-26T15:31:17;7.40;99.90
33139;DHT22;19501;50.948;5.316;2024-02-26T15:33:43;7.40;99.90
33139;DHT22;19501;50.948;5.316;2024-02-26T15:36:11;7.40;99.90
33139;DHT22;19501;50.948;5.316;2024-02-26T15:38:37;7.40;99.90
33139;DHT22;19501;50.948;5.316;2024-02-26T15:41:11;7.30;99.90
33139;DHT22;19501;50.948;5.316;2024-02-26T15:43:37;7.30;99.90
33139;DHT22;19501;50.948;5.316;2024-02-26T15:46:03;7.20;99.90
33139;DHT22;19501;50.948;5.316;2024-02-26T15:48:29;7.10;99.90
33139;DHT22;19501;50.948;5.316;2024-02-26T15:50:54;7.10;99.90
33139;DHT22;19501;50.948;5.316;2024-02-26T15:53:20;7.10;99.90